Time;durP1;ratioP1;P1;durP2;ratioP2;P2;SDS_P1;SDS_P2;PMS_P1;PMS_P2;Temp;Humidity;BMP_temperature;BMP_pressure;BME280_temperature;BME280_humidity;BME280_pressure;Samples;Min_cycle;Max_cycle;Signal;HPM_P1;HPM_P2
2024/03/29 01:43:52;;;;;;;0.97;0.70;;;;;;;7.75;62.03;97198.34;5107772;28;42277;-76
2024/03/29 01:46:22;;;;;;;0.73;0.57;;;;;;;7.79;61.69;97194.53;5092335;28;40254;-76
2024/03/29 01:48:50;;;;;;;0.53;0.40;;;;;;;7.88;62.04;97209.63;5074047;28;42862;-75
2024/03/29 01:51:19;;;;;;;0.80;0.70;;;;;;;7.84;61.99;97189.72;5091213;28;41929;-76
2024/03/29 01:53:48;;;;;;;1.43;0.70;;;;;;;7.94;61.57;97193.31;5091050;28;42383;-76
2024/03/29 01:56:17;;;;;;;1.80;0.80;;;;;;;7.97;61.75;97181.69;5091268;28;39982;-76
2024/03/29 01:58:46;;;;;;;1.50;0.63;;;;;;;7.99;61.54;97170.06;5092370;28;41749;-76
2024/03/29 02:01:14;;;;;;;0.50;0.50;;;;;;;8.01;61.76;97170.78;5125044;27;43547;-77
2024/03/29 02:03:42;;;;;;;0.93;0.50;;;;;;;7.95;61.65;97150.19;5090230;28;41058;-77
2024/03/29 02:06:10;;;;;;;1.07;0.50;;;;;;;8.06;61.76;97173.03;5092528;28;41060;-76
2024/03/29 02:08:37;;;;;;;1.17;0.70;;;;;;;8.08;61.66;97179.88;5090826;28;42780;-75
2024/03/29 02:11:05;;;;;;;1.20;0.80;;;;;;;8.11;61.53;97182.28;5073848;28;44218;-76
2024/03/29 02:13:32;;;;;;;4.23;0.73;;;;;;;8.11;62.02;97169.09;5090533;28;43396;-76
2024/03/29 02:16:01;;;;;;;0.80;0.80;;;;;;;8.09;63.09;97147.28;5107644;28;39358;-76
2024/03/29 02:18:29;;;;;;;1.73;0.83;;;;;;;7.74;63.12;97113.19;5107938;28;41701;-76
2024/03/29 02:20:56;;;;;;;1.10;0.70;;;;;;;8.00;62.60;97145.41;5108362;28;42788;-76
2024/03/29 02:23:28;;;;;;;1.20;0.77;;;;;;;8.04;63.14;97152.06;5090349;28;42201;-76
2024/03/29 02:25:57;;;;;;;1.53;0.60;;;;;;;8.09;62.80;97168.38;5091123;28;39338;-76
2024/03/29 02:28:26;;;;;;;2.90;0.63;;;;;;;8.12;62.43;97186.59;5091406;28;42732;-75
2024/03/29 02:30:54;;;;;;;0.93;0.60;;;;;;;8.14;62.50;97183.84;5106902;28;42150;-75
2024/03/29 02:33:22;;;;;;;0.83;0.73;;;;;;;8.16;62.99;97172.19;5107168;28;41468;-75
2024/03/29 02:35:50;;;;;;;1.50;0.70;;;;;;;8.17;63.23;97152.78;5107528;28;38934;-76
2024/03/29 02:38:17;;;;;;;0.70;0.63;;;;;;;8.17;62.84;97150.16;5091805;28;41843;-76
2024/03/29 02:40:44;;;;;;;1.23;0.73;;;;;;;8.21;62.70;97159.50;5090739;28;42448;-76
2024/03/29 02:43:13;;;;;;;0.97;0.50;;;;;;;8.22;62.20;97150.63;5090425;28;42277;-76
2024/03/29 02:45:41;;;;;;;2.10;0.87;;;;;;;8.24;62.28;97153.13;5107168;28;39932;-77
2024/03/29 02:48:08;;;;;;;1.27;0.60;;;;;;;8.25;62.67;97144.28;5090210;28;42721;-76
2024/03/29 02:50:35;;;;;;;2.40;0.90;;;;;;;8.20;62.44;97134.09;5107307;28;42731;-76
2024/03/29 02:53:02;;;;;;;1.03;0.50;;;;;;;8.31;62.44;97154.31;5090207;28;41196;-76
2024/03/29 02:55:28;;;;;;;1.07;0.67;;;;;;;8.34;62.32;97142.72;5090274;28;39305;-77
2024/03/29 02:57:56;;;;;;;0.33;0.33;;;;;;;8.36;62.09;97156.63;5091925;28;41922;-74
2024/03/29 03:00:24;;;;;;;1.87;0.80;;;;;;;8.30;61.98;97127.09;5091375;28;42746;-77
2024/03/29 03:03:06;;;;;;;1.10;0.70;;;;;;;8.40;62.24;97124.63;5090230;28;42332;-78
2024/03/29 03:05:37;;;;;;;1.83;0.70;;;;;;;8.42;62.74;97149.03;5090467;28;40370;-78
2024/03/29 03:10:59;;;;;;;1.33;0.70;;;;;;;8.44;62.45;97143.66;5069502;28;43004;-76
2024/03/29 03:13:27;;;;;;;0.80;0.70;;;;;;;8.49;62.15;97152.03;5107286;28;41756;-76
2024/03/29 03:15:57;;;;;;;1.23;0.77;;;;;;;8.51;62.34;97158.88;5090839;28;40368;-77
2024/03/29 03:18:24;;;;;;;1.90;0.73;;;;;;;8.52;62.33;97171.09;5094372;28;41524;-74
2024/03/29 03:20:51;;;;;;;0.70;0.57;;;;;;;8.54;62.26;97177.06;5127677;27;43833;-74
2024/03/29 03:23:19;;;;;;;1.17;0.60;;;;;;;8.55;62.15;97173.47;5094670;28;43311;-75
2024/03/29 03:25:47;;;;;;;0.87;0.60;;;;;;;8.54;62.40;97177.06;5076797;28;38982;-75
2024/03/29 03:28:15;;;;;;;0.70;0.70;;;;;;;8.54;63.33;97178.84;5076616;28;40640;-74
2024/03/29 03:30:41;;;;;;;2.03;0.70;;;;;;;8.53;62.92;97179.84;5094632;28;42855;-75
2024/03/29 03:33:10;;;;;;;0.80;0.70;;;;;;;8.55;62.74;97180.53;5094443;28;42247;-74
2024/03/29 03:35:36;;;;;;;1.37;0.70;;;;;;;8.57;62.35;97184.72;5094469;28;41006;-74
2024/03/29 03:38:04;;;;;;;1.43;0.70;;;;;;;8.48;62.39;97153.00;5094472;28;42430;-75
2024/03/29 03:40:30;;;;;;;0.60;0.60;;;;;;;8.61;62.78;97177.41;5093129;28;42762;-75
2024/03/29 03:42:58;;;;;;;0.97;0.80;;;;;;;8.63;62.72;97170.22;5092890;28;41506;-75
2024/03/29 03:45:24;;;;;;;0.63;0.63;;;;;;;8.60;62.46;97170.47;5094387;28;40952;-74
2024/03/29 03:47:51;;;;;;;1.27;0.80;;;;;;;8.65;62.72;97163.81;5094372;28;41496;-74
2024/03/29 03:50:19;;;;;;;1.23;0.70;;;;;;;8.62;63.27;97158.81;5092830;28;43165;-75
2024/03/29 03:52:47;;;;;;;0.60;0.60;;;;;;;8.63;63.01;97171.06;5092816;28;41456;-74
2024/03/29 03:55:13;;;;;;;1.13;0.80;;;;;;;8.61;63.16;97177.41;5110360;28;39945;-75
2024/03/29 03:57:41;;;;;;;1.23;0.90;;;;;;;8.71;62.88;97182.78;5092708;28;43519;-75
2024/03/29 04:00:09;;;;;;;0.60;0.60;;;;;;;8.73;63.11;97180.84;5093407;28;44038;-75
2024/03/29 04:02:42;;;;;;;0.83;0.70;;;;;;;8.73;62.91;97183.50;5108502;28;42059;-75
2024/03/29 04:05:09;;;;;;;2.07;0.80;;;;;;;8.71;63.82;97167.78;5110087;28;40006;-75
2024/03/29 04:07:38;;;;;;;1.90;0.90;;;;;;;8.68;64.41;97146.06;5126936;27;41851;-75
2024/03/29 04:10:05;;;;;;;0.80;0.80;;;;;;;8.67;64.66;97147.88;5094211;28;42499;-75
2024/03/29 04:12:32;;;;;;;1.13;0.97;;;;;;;8.69;64.03;97164.44;5093696;28;42068;-75
2024/03/29 04:14:59;;;;;;;1.17;0.70;;;;;;;8.71;64.23;97178.34;5127121;27;40785;-75
2024/03/29 04:17:26;;;;;;;0.67;0.63;;;;;;;8.68;63.99;97161.91;5092400;28;41636;-74
2024/03/29 04:19:53;;;;;;;0.70;0.60;;;;;;;8.77;64.16;97187.56;5093951;28;43855;-75
2024/03/29 04:22:20;;;;;;;0.60;0.60;;;;;;;8.79;63.93;97186.44;5109751;28;42340;-75
2024/03/29 04:24:48;;;;;;;1.27;0.93;;;;;;;8.77;64.49;97172.56;5092418;28;40273;-75
2024/03/29 04:27:16;;;;;;;1.00;0.87;;;;;;;8.71;66.55;97151.94;5091973;28;41856;-75
2024/03/29 04:29:42;;;;;;;1.73;0.90;;;;;;;8.71;65.52;97165.16;5092220;28;42993;-75
2024/03/29 04:32:10;;;;;;;1.00;0.90;;;;;;;8.74;65.09;97191.28;5108862;28;42235;-75
2024/03/29 04:34:36;;;;;;;0.60;0.50;;;;;;;8.79;64.73;97194.38;5092416;28;40034;-75
2024/03/29 04:37:04;;;;;;;1.10;0.73;;;;;;;8.84;64.82;97199.28;5091938;28;40686;-75
2024/03/29 04:39:31;;;;;;;1.53;1.00;;;;;;;8.85;64.30;97196.53;5109591;28;42506;-75
2024/03/29 04:42:00;;;;;;;1.30;0.80;;;;;;;8.89;64.45;97213.81;5093281;28;42064;-76
2024/03/29 04:44:28;;;;;;;0.97;0.67;;;;;;;8.94;63.95;97214.25;5092084;28;40306;-76
2024/03/29 04:46:56;;;;;;;1.03;0.87;;;;;;;9.00;63.77;97220.84;5126425;27;42685;-76
2024/03/29 04:49:30;;;;;;;1.00;0.90;;;;;;;9.05;63.20;97238.91;5126466;27;43995;-76
2024/03/29 04:51:57;;;;;;;0.93;0.80;;;;;;;9.12;63.24;97234.81;5092078;28;41180;-76
2024/03/29 04:54:25;;;;;;;1.33;1.00;;;;;;;9.11;62.70;97236.63;5092082;28;39150;-76
2024/03/29 04:56:53;;;;;;;2.57;0.90;;;;;;;9.10;62.65;97257.88;5091773;28;40651;-76
2024/03/29 04:59:23;;;;;;;0.97;0.77;;;;;;;9.10;62.30;97256.06;5091833;28;43405;-75
2024/03/29 05:01:52;;;;;;;0.87;0.80;;;;;;;9.14;62.08;97264.59;5092719;28;42779;-76
2024/03/29 05:04:25;;;;;;;0.70;0.70;;;;;;;9.16;61.82;97262.63;5126265;27;40990;-77
2024/03/29 05:06:53;;;;;;;1.40;0.73;;;;;;;9.21;62.08;97252.53;5091917;28;40791;-76
2024/03/29 05:09:21;;;;;;;1.13;0.83;;;;;;;9.22;62.47;97251.59;5092829;28;43817;-76
2024/03/29 05:11:49;;;;;;;1.13;0.70;;;;;;;9.18;62.40;97239.59;5092734;28;43236;-75
2024/03/29 05:14:18;;;;;;;0.70;0.70;;;;;;;9.18;63.40;97234.31;5091457;28;38961;-76
2024/03/29 05:16:47;;;;;;;0.93;0.70;;;;;;;9.16;63.43;97215.09;5092332;28;42738;-76
2024/03/29 05:19:16;;;;;;;0.77;0.70;;;;;;;9.18;65.94;97199.97;5108489;28;44208;-75
2024/03/29 05:21:43;;;;;;;1.00;0.60;;;;;;;9.14;66.10;97194.13;5074173;28;43689;-77
2024/03/29 05:24:11;;;;;;;1.43;0.90;;;;;;;9.02;67.08;97186.38;5093038;28;40935;-76
2024/03/29 05:26:38;;;;;;;0.70;0.70;;;;;;;9.02;68.96;97186.38;5091082;28;42128;-76
2024/03/29 05:29:07;;;;;;;1.57;1.00;;;;;;;9.04;72.75;97179.16;5092116;28;42808;-76
2024/03/29 05:31:35;;;;;;;1.07;0.97;;;;;;;8.95;73.92;97170.19;5107259;28;42251;-76
2024/03/29 05:34:03;;;;;;;1.30;0.90;;;;;;;8.96;74.46;97175.34;5092409;28;40150;-76
2024/03/29 05:36:31;;;;;;;1.57;1.07;;;;;;;8.77;74.72;97151.47;5107537;28;41688;-76
2024/03/29 05:38:59;;;;;;;1.03;0.83;;;;;;;8.89;74.71;97168.94;5124355;27;42708;-76
2024/03/29 05:41:27;;;;;;;1.20;0.83;;;;;;;8.93;77.08;97164.22;5124933;27;42085;-76
2024/03/29 05:44:04;;;;;;;0.87;0.80;;;;;;;8.93;75.48;97166.84;5107591;28;39833;-76
2024/03/29 05:46:39;;;;;;;0.87;0.67;;;;;;;8.98;74.84;97181.34;5087596;28;42445;-76
2024/03/29 05:49:08;;;;;;;2.07;0.90;;;;;;;8.95;75.35;97176.31;5124988;27;42825;-75
2024/03/29 05:51:35;;;;;;;0.70;0.70;;;;;;;8.98;78.10;97164.69;5091614;28;42632;-76
2024/03/29 05:54:04;;;;;;;1.47;0.80;;;;;;;8.95;78.77;97154.38;5092249;28;40724;-80
2024/03/29 05:56:31;;;;;;;1.07;0.73;;;;;;;8.97;78.96;97174.41;5092140;28;42728;-77
2024/03/29 05:58:59;;;;;;;0.70;0.63;;;;;;;8.99;77.98;97177.75;5092235;28;42938;-77
2024/03/29 06:01:26;;;;;;;1.37;0.80;;;;;;;9.06;77.74;97171.94;5091002;28;43195;-77
2024/03/29 06:03:55;;;;;;;1.27;0.70;;;;;;;9.13;76.69;97173.13;5125229;27;40198;-77
2024/03/29 06:06:24;;;;;;;0.70;0.60;;;;;;;9.25;75.74;97172.09;5091090;28;41757;-77
2024/03/29 06:08:52;;;;;;;2.87;0.90;;;;;;;9.24;75.47;97165.16;5107921;28;41924;-77
2024/03/29 06:11:20;;;;;;;0.80;0.70;;;;;;;9.36;75.52;97177.31;5092000;28;43010;-77
2024/03/29 06:19:17;;;;;;;1.63;0.90;;;;;;;9.43;75.37;97170.53;5104726;28;42940;-77
2024/03/29 06:21:46;;;;;;;1.00;0.90;;;;;;;9.46;75.38;97170.28;5090518;28;41633;-77
2024/03/29 06:24:14;;;;;;;0.83;0.80;;;;;;;9.49;75.74;97167.38;5092129;28;40356;-77
2024/03/29 06:26:42;;;;;;;0.80;0.80;;;;;;;9.54;75.37;97166.97;5107792;28;41694;-77
2024/03/29 06:29:10;;;;;;;1.00;0.80;;;;;;;9.59;75.68;97170.06;5073984;28;41778;-77
2024/03/29 06:31:37;;;;;;;0.87;0.73;;;;;;;9.57;75.87;97145.59;5091775;28;43222;-77
2024/03/29 06:34:05;;;;;;;0.90;0.90;;;;;;;9.57;76.20;97133.22;5090889;28;40625;-77
2024/03/29 06:36:35;;;;;;;0.97;0.70;;;;;;;9.70;76.94;97144.41;5090578;28;40685;-77
2024/03/29 06:39:04;;;;;;;0.70;0.70;;;;;;;9.77;76.85;97146.53;5108123;28;41811;-77
2024/03/29 06:41:32;;;;;;;0.83;0.70;;;;;;;9.81;77.43;97153.22;5090780;28;41341;-77
2024/03/29 06:43:59;;;;;;;0.70;0.60;;;;;;;9.52;76.89;97090.47;5108174;28;39960;-77
2024/03/29 06:46:27;;;;;;;0.97;0.80;;;;;;;9.83;76.71;97130.13;5107566;28;42349;-77
2024/03/29 06:48:54;;;;;;;0.83;0.80;;;;;;;9.97;76.91;97143.81;5125057;27;42993;-77
2024/03/29 06:51:22;;;;;;;2.17;1.07;;;;;;;9.96;76.64;97130.72;5110781;27;42143;-76
2024/03/29 06:53:50;;;;;;;1.63;0.70;;;;;;;10.06;77.08;97150.94;5093876;28;38427;-76
2024/03/29 06:56:19;;;;;;;2.87;1.10;;;;;;;10.11;76.61;97149.72;5095621;28;41777;-78
2024/03/29 06:58:46;;;;;;;1.10;1.00;;;;;;;10.11;76.23;97134.69;5111301;28;41700;-77
2024/03/29 07:01:13;;;;;;;0.90;0.80;;;;;;;10.19;76.45;97150.72;5093539;28;43838;-77
2024/03/29 07:03:41;;;;;;;1.20;1.00;;;;;;;10.20;76.78;97141.81;5095287;28;41596;-77
2024/03/29 07:06:08;;;;;;;1.50;1.00;;;;;;;10.21;78.33;97159.38;5127786;27;42145;-77
2024/03/29 07:08:36;;;;;;;1.30;1.00;;;;;;;10.19;77.46;97121.63;5095290;28;42619;-77
2024/03/29 07:11:04;;;;;;;0.70;0.70;;;;;;;10.44;77.27;97152.03;5094147;28;42616;-76
2024/03/29 07:13:33;;;;;;;0.93;0.90;;;;;;;10.59;76.61;97152.50;5111271;28;38933;-77
2024/03/29 07:16:01;;;;;;;1.07;0.83;;;;;;;10.68;76.49;97151.66;5095234;28;41990;-77
2024/03/29 07:18:29;;;;;;;1.40;1.00;;;;;;;10.78;76.00;97158.63;5093785;28;43673;-77
2024/03/29 07:20:57;;;;;;;1.50;0.70;;;;;;;10.79;76.16;97157.66;5093841;28;41469;-77
2024/03/29 07:23:24;;;;;;;1.20;0.90;;;;;;;10.61;76.90;97126.72;5110915;28;40236;-76
2024/03/29 07:25:59;;;;;;;1.53;0.80;;;;;;;10.83;77.14;97152.94;5110533;28;41865;-77
2024/03/29 07:28:27;;;;;;;1.37;1.00;;;;;;;10.96;76.64;97164.06;5110698;28;43327;-77
2024/03/29 07:30:56;;;;;;;1.90;1.10;;;;;;;11.06;76.71;97162.25;5092977;28;40999;-77
2024/03/29 07:33:26;;;;;;;1.47;1.00;;;;;;;11.18;75.89;97162.09;5094637;28;40867;-77
2024/03/29 07:35:53;;;;;;;1.23;0.80;;;;;;;11.20;76.01;97161.00;5111025;28;40423;-77
2024/03/29 07:38:20;;;;;;;2.73;0.90;;;;;;;11.33;75.64;97160.69;5093207;28;41776;-77
2024/03/29 07:40:48;;;;;;;1.07;0.97;;;;;;;11.38;74.70;97167.22;5094689;28;43067;-77
2024/03/29 07:43:16;;;;;;;1.00;0.90;;;;;;;11.32;73.20;97159.03;5094942;28;39907;-77
2024/03/29 07:45:44;;;;;;;1.33;0.87;;;;;;;11.44;72.04;97163.19;5094899;28;42480;-77
2024/03/29 07:48:15;;;;;;;0.90;0.80;;;;;;;11.57;69.33;97169.03;5076681;28;42294;-77
2024/03/29 07:50:43;;;;;;;0.70;0.70;;;;;;;11.67;68.72;97151.25;5093460;28;43133;-78
2024/03/29 07:53:10;;;;;;;0.90;0.80;;;;;;;11.46;68.49;97102.94;5093827;28;39980;-78
2024/03/29 07:55:39;;;;;;;0.83;0.60;;;;;;;11.87;68.08;97168.81;5093766;28;40783;-77
2024/03/29 07:58:08;;;;;;;0.50;0.50;;;;;;;11.97;68.45;97160.00;5094459;28;42763;-78
2024/03/29 08:00:40;;;;;;;0.60;0.60;;;;;;;12.05;67.96;97157.44;5093284;28;42551;-78
2024/03/29 08:03:07;;;;;;;0.97;0.63;;;;;;;12.22;68.00;97154.03;5093204;28;40269;-77
2024/03/29 08:05:36;;;;;;;0.60;0.50;;;;;;;12.34;66.87;97154.66;5093227;28;40934;-77
2024/03/29 08:08:04;;;;;;;0.77;0.60;;;;;;;12.40;63.54;97169.97;5127174;27;42488;-77
2024/03/29 08:10:32;;;;;;;1.27;0.53;;;;;;;12.33;59.56;97161.78;5127204;27;42488;-77
2024/03/29 08:13:00;;;;;;;0.30;0.30;;;;;;;12.36;59.34;97148.22;5110019;28;39305;-77
2024/03/29 08:15:28;;;;;;;0.93;0.70;;;;;;;12.57;59.82;97151.44;5092691;28;42758;-78
2024/03/29 08:17:55;;;;;;;2.13;0.80;;;;;;;12.65;60.20;97141.88;5110074;28;41988;-78
2024/03/29 08:20:29;;;;;;;0.53;0.50;;;;;;;12.70;60.39;97147.56;5097519;28;42460;-78
2024/03/29 08:23:00;;;;;;;0.73;0.67;;;;;;;12.75;59.54;97135.50;5094511;28;40177;-77
2024/03/29 08:25:28;;;;;;;0.50;0.50;;;;;;;12.81;59.39;97132.25;5110424;28;41952;-78
2024/03/29 08:27:58;;;;;;;1.07;0.70;;;;;;;12.89;59.83;97128.81;5127879;27;43810;-77
2024/03/29 08:30:26;;;;;;;0.60;0.57;;;;;;;12.94;59.65;97138.00;5109287;28;42471;-78
2024/03/29 08:32:54;;;;;;;1.30;1.20;;;;;;;13.00;59.75;97143.69;5092897;28;38812;-77
2024/03/29 08:35:21;;;;;;;1.43;1.27;;;;;;;12.98;59.75;97146.53;5092974;28;42133;-77
2024/03/29 08:37:50;;;;;;;2.33;1.10;;;;;;;12.92;59.00;97157.75;5093853;28;42722;-78
2024/03/29 08:40:19;;;;;;;1.00;0.87;;;;;;;12.87;59.53;97160.00;5093966;28;42351;-77
2024/03/29 08:42:46;;;;;;;1.90;1.00;;;;;;;12.82;60.57;97164.97;5109543;28;39790;-77
2024/03/29 08:45:14;;;;;;;1.00;0.90;;;;;;;12.75;60.62;97182.47;5092505;28;43690;-77
2024/03/29 08:47:41;;;;;;;1.20;1.10;;;;;;;12.65;61.26;97187.00;5092231;28;42087;-76
2024/03/29 08:50:10;;;;;;;0.83;0.70;;;;;;;12.53;62.14;97179.25;5093809;28;42086;-77
2024/03/29 08:52:38;;;;;;;1.00;0.70;;;;;;;12.47;63.04;97179.03;5092058;28;38597;-78
2024/03/29 08:55:06;;;;;;;0.83;0.70;;;;;;;12.37;65.06;97167.59;5093631;28;41708;-77
2024/03/29 08:57:35;;;;;;;0.97;0.70;;;;;;;12.32;67.06;97176.03;5093347;28;42990;-77
2024/03/29 09:00:04;;;;;;;0.83;0.67;;;;;;;12.16;68.88;97181.13;5093249;28;42730;-77
2024/03/29 09:02:32;;;;;;;1.00;0.67;;;;;;;12.20;69.78;97198.44;5108920;28;39029;-78
2024/03/29 09:04:59;;;;;;;0.93;0.80;;;;;;;12.12;69.93;97195.66;5092878;28;41857;-78
2024/03/29 09:07:27;;;;;;;1.23;1.00;;;;;;;12.05;70.71;97202.53;5091683;28;43314;-77
2024/03/29 09:09:54;;;;;;;0.83;0.80;;;;;;;11.99;71.54;97203.13;5126094;27;43228;-77
2024/03/29 09:12:22;;;;;;;0.90;0.83;;;;;;;11.91;72.23;97203.84;5093243;28;40705;-78
2024/03/29 09:14:52;;;;;;;0.73;0.60;;;;;;;11.79;74.99;97199.69;5107412;27;43286;-77
2024/03/29 09:17:21;;;;;;;0.67;0.67;;;;;;;11.67;76.09;97217.56;5108485;28;41766;-77
2024/03/29 09:19:51;;;;;;;0.87;0.73;;;;;;;11.58;76.80;97206.97;5091807;28;42491;-77
2024/03/29 09:22:19;;;;;;;1.53;0.70;;;;;;;11.56;78.05;97212.41;5108402;28;39910;-77
2024/03/29 09:24:46;;;;;;;0.80;0.53;;;;;;;11.48;79.13;97209.66;5091598;28;40807;-77
2024/03/29 09:27:14;;;;;;;1.60;0.73;;;;;;;11.38;80.03;97200.84;5092344;28;43702;-77
2024/03/29 09:29:42;;;;;;;1.90;1.07;;;;;;;11.41;80.89;97221.78;5091147;28;43228;-77
2024/03/29 09:32:11;;;;;;;1.00;0.50;;;;;;;11.38;81.65;97214.09;5108218;28;40988;-77
2024/03/29 09:34:39;;;;;;;2.30;0.70;;;;;;;11.33;81.99;97226.94;5091107;28;40591;-78
2024/03/29 09:37:06;;;;;;;0.80;0.80;;;;;;;11.29;82.64;97222.91;5074036;28;43063;-77
2024/03/29 09:39:34;;;;;;;0.83;0.63;;;;;;;11.23;83.60;97219.00;5074215;28;42290;-78
2024/03/29 09:42:03;;;;;;;2.90;0.60;;;;;;;11.13;84.36;97211.03;5092612;28;41017;-78
2024/03/29 09:44:34;;;;;;;1.67;0.87;;;;;;;11.23;84.37;97239.38;5125236;27;41473;-77
2024/03/29 09:47:04;;;;;;;0.80;0.70;;;;;;;11.12;85.55;97216.50;5107927;28;44825;-79
2024/03/29 09:49:34;;;;;;;0.70;0.70;;;;;;;11.20;85.40;97247.59;5074165;28;42451;-78
2024/03/29 09:52:02;;;;;;;1.53;1.00;;;;;;;11.21;85.15;97246.63;5107739;28;40066;-77
2024/03/29 09:54:30;;;;;;;1.57;0.67;;;;;;;11.24;85.13;97267.53;5090751;28;42799;-78
2024/03/29 09:56:57;;;;;;;2.37;0.70;;;;;;;11.29;85.29;97281.19;5090723;28;42095;-77
2024/03/29 09:59:26;;;;;;;0.97;0.70;;;;;;;11.15;85.59;97270.03;5090870;28;41063;-77
2024/03/29 10:01:56;;;;;;;1.10;0.80;;;;;;;11.19;85.67;97275.91;5107802;28;38623;-78
2024/03/29 10:04:25;;;;;;;1.07;0.60;;;;;;;11.34;85.72;97282.47;5090885;28;42119;-78
2024/03/29 10:06:55;;;;;;;0.97;0.77;;;;;;;11.25;86.08;97280.63;5092073;28;42872;-78
2024/03/29 10:09:27;;;;;;;1.43;0.77;;;;;;;11.27;86.68;97283.13;5090965;28;43031;-78
2024/03/29 10:11:55;;;;;;;2.43;0.93;;;;;;;11.25;88.21;97275.31;5090642;28;39224;-78
2024/03/29 10:14:23;;;;;;;1.37;1.03;;;;;;;11.23;86.43;97282.59;5091872;28;43308;-79
2024/03/29 10:16:52;;;;;;;1.43;0.77;;;;;;;11.23;87.46;97279.94;5107525;28;43617;-79
2024/03/29 10:19:21;;;;;;;1.57;0.80;;;;;;;11.29;87.98;97287.34;5107450;28;41428;-79
2024/03/29 10:21:49;;;;;;;0.80;0.80;;;;;;;11.14;88.23;97268.34;5107746;28;39992;-78
2024/03/29 10:24:18;;;;;;;0.90;0.77;;;;;;;11.23;87.99;97272.00;5090605;28;42759;-77
2024/03/29 10:26:45;;;;;;;0.90;0.90;;;;;;;11.33;88.67;97286.09;5090104;28;42087;-78
2024/03/29 10:29:13;;;;;;;1.87;0.83;;;;;;;11.34;89.41;97284.28;5090714;28;42345;-78
2024/03/29 10:31:40;;;;;;;1.67;0.90;;;;;;;11.40;90.40;97289.84;5089573;28;39308;-78
2024/03/29 10:34:08;;;;;;;1.10;1.00;;;;;;;11.42;89.58;97289.72;5090490;28;40600;-77
2024/03/29 10:36:36;;;;;;;2.27;0.80;;;;;;;11.45;89.30;97281.50;5091491;28;42629;-78
2024/03/29 10:39:11;;;;;;;1.20;0.80;;;;;;;11.63;88.80;97287.75;5107741;28;43433;-77
2024/03/29 10:41:42;;;;;;;1.50;0.67;;;;;;;11.72;88.93;97273.66;5121367;27;40609;-79
2024/03/29 10:44:12;;;;;;;0.80;0.80;;;;;;;11.79;88.19;97266.00;5107085;28;41840;-80
2024/03/29 10:46:41;;;;;;;1.00;0.90;;;;;;;12.06;88.09;97270.56;5124396;27;42879;-79
2024/03/29 10:49:11;;;;;;;1.60;0.83;;;;;;;12.43;87.30;97266.09;5124670;27;43066;-78
2024/03/29 10:51:39;;;;;;;1.53;0.93;;;;;;;12.71;86.33;97268.75;5124550;27;40103;-78
2024/03/29 10:54:09;;;;;;;0.90;0.83;;;;;;;12.80;86.43;97279.31;5107477;28;41782;-79
2024/03/29 10:56:38;;;;;;;0.70;0.70;;;;;;;12.85;86.22;97278.91;5089981;28;44389;-78
2024/03/29 10:59:13;;;;;;;1.07;0.97;;;;;;;12.82;86.44;97253.47;5107272;28;42635;-78
2024/03/29 11:01:46;;;;;;;1.80;1.00;;;;;;;12.97;86.15;97248.47;5089768;28;40464;-78
2024/03/29 11:04:22;;;;;;;2.10;0.90;;;;;;;13.04;85.67;97235.41;5090545;28;41833;-79
2024/03/29 11:06:52;;;;;;;1.03;0.93;;;;;;;13.10;85.11;97219.72;5090415;28;44353;-79
2024/03/29 11:09:22;;;;;;;0.90;0.90;;;;;;;13.28;85.46;97228.53;5090834;28;42656;-79
2024/03/29 11:11:52;;;;;;;1.40;1.00;;;;;;;13.42;85.43;97223.69;5090343;28;41126;-79
2024/03/29 11:14:25;;;;;;;1.10;1.00;;;;;;;13.46;85.19;97209.09;5107548;28;40954;-78
2024/03/29 11:16:57;;;;;;;1.07;0.70;;;;;;;13.51;84.79;97214.75;5089981;28;41825;-79
2024/03/29 11:19:24;;;;;;;0.77;0.77;;;;;;;13.54;84.67;97201.16;5087075;28;43287;-79
2024/03/29 11:21:53;;;;;;;1.80;1.10;;;;;;;13.51;84.65;97191.66;5090089;28;41534;-78
2024/03/29 11:24:24;;;;;;;1.23;0.97;;;;;;;13.52;84.75;97203.13;5089805;28;43296;-78
2024/03/29 11:26:51;;;;;;;1.33;1.10;;;;;;;13.37;84.19;97186.91;5106696;28;41898;-77
2024/03/29 11:29:21;;;;;;;0.80;0.80;;;;;;;13.38;83.99;97201.03;5089824;28;41295;-78
2024/03/29 11:31:56;;;;;;;1.17;1.00;;;;;;;13.53;84.43;97210.97;5090685;28;40895;-78
2024/03/29 11:34:24;;;;;;;1.07;0.97;;;;;;;13.65;84.49;97195.59;5106764;28;41852;-78
2024/03/29 11:36:52;;;;;;;3.80;1.60;;;;;;;13.85;85.52;97193.56;5090074;28;42613;-77
2024/03/29 11:39:24;;;;;;;12.40;4.37;;;;;;;13.94;84.46;97209.44;5076431;28;43961;-79
2024/03/29 11:41:51;;;;;;;18.53;6.27;;;;;;;13.91;84.18;97212.41;5110122;28;40165;-78
2024/03/29 11:44:21;;;;;;;11.10;4.50;;;;;;;13.97;83.81;97221.59;5093059;28;43608;-77
2024/03/29 11:46:49;;;;;;;4.80;2.53;;;;;;;14.00;83.31;97230.09;5092827;28;44583;-78
2024/03/29 11:49:17;;;;;;;6.23;2.63;;;;;;;13.98;83.30;97216.09;5110127;28;43768;-79
2024/03/29 11:51:45;;;;;;;7.37;3.57;;;;;;;13.81;83.08;97193.06;5093050;28;42360;-78
2024/03/29 11:54:13;;;;;;;5.70;3.00;;;;;;;13.89;83.36;97209.06;5092552;28;40331;-78
2024/03/29 11:56:40;;;;;;;4.90;3.10;;;;;;;13.61;83.09;97154.34;5093858;28;43934;-77
2024/03/29 11:59:08;;;;;;;4.97;2.77;;;;;;;13.92;82.70;97206.09;5126922;27;42195;-77
2024/03/29 12:01:39;;;;;;;3.03;1.93;;;;;;;14.10;82.61;97213.16;5092501;28;40415;-77
2024/03/29 12:04:07;;;;;;;3.40;2.67;;;;;;;14.36;82.88;97208.63;5093001;28;40833;-78
2024/03/29 12:06:34;;;;;;;2.73;2.13;;;;;;;14.70;82.23;97200.66;5093556;28;42981;-77
2024/03/29 12:09:02;;;;;;;3.17;1.80;;;;;;;15.00;80.91;97204.56;5092918;28;43484;-78
2024/03/29 12:11:30;;;;;;;1.97;1.47;;;;;;;15.20;78.99;97203.28;5109853;28;40719;-77
2024/03/29 12:13:58;;;;;;;1.93;1.40;;;;;;;15.42;78.95;97202.63;5109583;28;40392;-78
2024/03/29 12:16:26;;;;;;;1.70;1.40;;;;;;;15.54;78.85;97192.44;5109260;28;43272;-78
2024/03/29 12:18:55;;;;;;;1.37;1.13;;;;;;;15.69;77.86;97205.97;5093603;28;42715;-78
2024/03/29 12:21:22;;;;;;;1.63;1.27;;;;;;;15.78;76.98;97211.13;5109512;28;38971;-78
2024/03/29 12:23:50;;;;;;;2.37;1.23;;;;;;;15.78;77.47;97210.31;5091930;28;41934;-77
2024/03/29 12:26:22;;;;;;;1.33;0.97;;;;;;;15.67;76.33;97227.50;5093971;28;42612;-77
2024/03/29 12:28:51;;;;;;;1.70;1.03;;;;;;;15.62;76.78;97218.31;5093406;28;42503;-78
2024/03/29 12:31:18;;;;;;;1.77;0.97;;;;;;;15.57;76.78;97215.31;5093031;28;40043;-77
2024/03/29 12:33:53;;;;;;;1.10;0.90;;;;;;;15.54;77.37;97208.44;5091874;28;40893;-77
2024/03/29 12:36:26;;;;;;;1.27;0.97;;;;;;;15.51;77.61;97219.44;5090360;28;43926;-77
2024/03/29 12:38:58;;;;;;;1.27;1.10;;;;;;;15.42;77.98;97215.94;5109209;28;42538;-77
2024/03/29 12:41:25;;;;;;;1.53;1.03;;;;;;;15.36;77.75;97223.78;5105994;28;41243;-76
2024/03/29 12:43:53;;;;;;;1.00;0.90;;;;;;;15.30;78.25;97221.78;5092135;28;40468;-78
2024/03/29 12:46:21;;;;;;;1.73;1.20;;;;;;;15.28;78.09;97215.78;5092944;28;42498;-78
2024/03/29 12:48:48;;;;;;;2.17;1.43;;;;;;;15.27;78.19;97220.28;5108142;28;42561;-78
2024/03/29 12:51:19;;;;;;;1.47;1.37;;;;;;;15.07;78.10;97202.94;5108923;28;42113;-77
2024/03/29 12:53:48;;;;;;;1.87;1.30;;;;;;;15.17;78.26;97230.25;5091829;28;40569;-77
2024/03/29 12:56:16;;;;;;;1.43;1.30;;;;;;;15.06;78.45;97227.91;5108874;28;43344;-77
2024/03/29 12:58:43;;;;;;;1.77;1.30;;;;;;;15.13;78.96;97238.75;5108879;28;43274;-77
2024/03/29 13:01:11;;;;;;;1.40;1.20;;;;;;;15.13;78.73;97239.56;5108488;28;40434;-78
2024/03/29 13:03:40;;;;;;;1.40;1.27;;;;;;;15.15;78.96;97244.75;5074611;28;41606;-78
2024/03/29 13:06:08;;;;;;;1.20;1.00;;;;;;;15.20;79.03;97248.59;5108634;28;41839;-78
2024/03/29 13:08:36;;;;;;;2.10;1.20;;;;;;;15.27;78.95;97265.59;5108204;28;42935;-77
2024/03/29 13:11:05;;;;;;;1.60;1.00;;;;;;;15.31;78.65;97269.63;5125931;27;40819;-77
2024/03/29 13:13:33;;;;;;;0.80;0.77;;;;;;;15.34;79.07;97271.94;5091079;28;40568;-78
2024/03/29 13:16:00;;;;;;;0.83;0.83;;;;;;;15.41;78.78;97291.63;5074363;28;41673;-78
2024/03/29 13:18:28;;;;;;;1.20;1.10;;;;;;;15.46;78.67;97289.28;5108397;28;43153;-77
2024/03/29 13:20:56;;;;;;;2.17;1.20;;;;;;;15.44;78.80;97303.81;5092949;28;40975;-78
2024/03/29 13:23:23;;;;;;;1.20;0.83;;;;;;;15.38;78.77;97315.13;5090800;28;41899;-77
2024/03/29 13:25:53;;;;;;;1.07;0.90;;;;;;;15.33;78.59;97312.94;5092697;28;43985;-77
2024/03/29 13:28:22;;;;;;;1.33;1.10;;;;;;;15.37;78.51;97308.13;5091991;28;42335;-76
2024/03/29 13:30:51;;;;;;;1.07;0.97;;;;;;;15.46;78.48;97313.31;5091924;28;39969;-77
2024/03/29 13:33:18;;;;;;;1.10;1.00;;;;;;;15.61;78.53;97318.03;5091832;28;41938;-77